Pauls Store, Texas
Current Conditions -  °F | °C
As of 4:55 PM on Saturday 20 Dec 2014 (Local Time) from KOCH Reporting Station
Broken Clouds Broken Clouds  
Wind Chill: 54°   Ceiling: 2300
Heat Index: 54°   Visibility: 10mi
Dew Point: 43°   Wind: 5mph
Humidity: 67%   Direction: 90°E
Pressure: 30.17"   Gusts: NA
Location:  31.7022°N, 93.9592°W
Report Text: KOCH 202255Z AUTO 09004KT 10SM BKN023 12/06 A3017 RMK AO1
Loading
Personal Weather Stations






























Interactive Weather Map New forecast layout! Learn more

10-Day Weather Forecast

Advertisements
Track Severe Weather on mobile